Wetterdaten: Woche 03.03.25 - 09.03.25 (KW10)
Datum Zeit Temp. I. Temp. A. Feuchte I. Feuchte A. Luftdruck Regen Wind Richtung Sonnenschein Solar Taupunkt Windchill Windböen
03.03.2025 00:00 22,2 °C -2,3 °C 47 % 92 % 1031,3 hPa 0,0 l/m² 0,1 km/h (0 Bft) W 0,00 h 0 W/m² -3,4 °C -2,3 °C 0,3 km/h (0 Bft)
03.03.2025 01:00 22,3 °C -2,5 °C 47 % 92 % 1031,2 hPa 0,0 l/m² 0,0 km/h (0 Bft) W 0,00 h 0 W/m² -3,6 °C -2,5 °C 0,0 km/h (0 Bft)
03.03.2025 02:00 22,3 °C -3,0 °C 47 % 92 % 1031,1 hPa 0,0 l/m² 0,0 km/h (0 Bft) W 0,00 h 0 W/m² -4,1 °C -3,0 °C 0,0 km/h (0 Bft)
03.03.2025 03:00 22,3 °C -3,5 °C 47 % 92 % 1030,8 hPa 0,0 l/m² 0,1 km/h (0 Bft) W 0,00 h 0 W/m² -4,6 °C -3,5 °C 0,3 km/h (0 Bft)
03.03.2025 04:00 22,4 °C -3,8 °C 47 % 93 % 1030,4 hPa 0,0 l/m² 0,0 km/h (0 Bft) W 0,00 h 0 W/m² -4,8 °C -3,8 °C 0,1 km/h (0 Bft)
03.03.2025 05:00 22,4 °C -4,0 °C 47 % 93 % 1030,3 hPa 0,0 l/m² 0,0 km/h (0 Bft) W 0,00 h 0 W/m² -4,9 °C -4,0 °C 0,0 km/h (0 Bft)
03.03.2025 06:00 22,4 °C -4,1 °C 47 % 93 % 1030,3 hPa 0,0 l/m² 0,1 km/h (0 Bft) W-NW 0,00 h 0 W/m² -5,0 °C -4,1 °C 0,5 km/h (0 Bft)
03.03.2025 07:00 22,4 °C -3,6 °C 46 % 93 % 1030,4 hPa 0,0 l/m² 0,0 km/h (0 Bft) W-NW 0,23 h 38 W/m² -4,6 °C -3,6 °C 0,0 km/h (0 Bft)
03.03.2025 08:00 22,5 °C -0,5 °C 45 % 93 % 1030,4 hPa 0,2 l/m² 2,2 km/h (1 Bft) W-NW 1,00 h 201 W/m² -1,6 °C -0,6 °C 3,4 km/h (1 Bft)
03.03.2025 09:00 23,0 °C 2,3 °C 44 % 89 % 1030,5 hPa 0,0 l/m² 5,6 km/h (2 Bft) S-SW 1,02 h 364 W/m² 0,7 °C 1,7 °C 7,5 km/h (2 Bft)
03.03.2025 10:00 23,6 °C 5,0 °C 44 % 82 % 1030,8 hPa 0,0 l/m² 6,7 km/h (2 Bft) SW 1,00 h 479 W/m² 2,2 °C 4,4 °C 9,8 km/h (2 Bft)
03.03.2025 11:00 24,1 °C 7,7 °C 44 % 70 % 1030,6 hPa 0,0 l/m² 4,6 km/h (1 Bft) SW 1,00 h 552 W/m² 2,7 °C 7,6 °C 7,6 km/h (2 Bft)
03.03.2025 12:00 24,5 °C 9,3 °C 44 % 57 % 1030,4 hPa 0,0 l/m² 7,4 km/h (2 Bft) W 1,00 h 576 W/m² 1,3 °C 8,2 °C 11,5 km/h (2 Bft)
03.03.2025 13:00 24,7 °C 10,4 °C 43 % 49 % 1029,7 hPa 0,0 l/m² 4,0 km/h (1 Bft) W 1,00 h 548 W/m² 0,2 °C 10,2 °C 7,3 km/h (2 Bft)
03.03.2025 14:00 24,5 °C 11,0 °C 42 % 43 % 1029,2 hPa 0,0 l/m² 5,0 km/h (1 Bft) W 1,00 h 469 W/m² -1,2 °C 10,9 °C 8,5 km/h (2 Bft)
03.03.2025 15:00 24,0 °C 11,3 °C 43 % 42 % 1028,9 hPa 0,0 l/m² 2,9 km/h (1 Bft) W 1,00 h 343 W/m² -1,1 °C 11,2 °C 5,5 km/h (2 Bft)
03.03.2025 16:00 23,7 °C 10,3 °C 41 % 51 % 1028,1 hPa 0,0 l/m² 4,3 km/h (1 Bft) SW 1,00 h 160 W/m² 0,7 °C 10,2 °C 6,2 km/h (2 Bft)
03.03.2025 17:00 23,2 °C 8,5 °C 39 % 61 % 1027,8 hPa 0,0 l/m² 0,9 km/h (0 Bft) SW 0,28 h 33 W/m² 1,5 °C 8,5 °C 1,4 km/h (1 Bft)
03.03.2025 18:00 22,9 °C 4,3 °C 42 % 76 % 1027,9 hPa 0,0 l/m² 0,5 km/h (0 Bft) SW 0,00 h 5 W/m² 0,5 °C 4,3 °C 0,7 km/h (0 Bft)
03.03.2025 19:00 22,9 °C 1,3 °C 43 % 85 % 1028,4 hPa 0,0 l/m² 0,1 km/h (0 Bft) N-NW 0,00 h 0 W/m² -1,0 °C 1,3 °C 0,3 km/h (0 Bft)
03.03.2025 20:00 22,9 °C 0,2 °C 45 % 87 % 1028,5 hPa 0,0 l/m² 0,0 km/h (0 Bft) N-NW 0,00 h 0 W/m² -1,6 °C 0,2 °C 0,2 km/h (0 Bft)
03.03.2025 21:00 22,8 °C -0,6 °C 45 % 89 % 1028,8 hPa 0,0 l/m² 0,0 km/h (0 Bft) N-NW 0,00 h 0 W/m² -2,2 °C -0,6 °C 0,0 km/h (0 Bft)
03.03.2025 22:00 22,7 °C -1,3 °C 45 % 90 % 1028,6 hPa 0,0 l/m² 0,0 km/h (0 Bft) N-NW 0,00 h 0 W/m² -2,8 °C -1,3 °C 0,0 km/h (0 Bft)
03.03.2025 23:00 22,7 °C -1,6 °C 45 % 90 % 1028,5 hPa 0,0 l/m² 0,0 km/h (0 Bft) N-NW 0,00 h 0 W/m² -3,0 °C -1,6 °C 0,0 km/h (0 Bft)
04.03.2025 00:00 22,7 °C -2,1 °C 45 % 91 % 1028,3 hPa 0,0 l/m² 0,0 km/h (0 Bft) N-NW 0,00 h 0 W/m² -3,4 °C -2,1 °C 0,0 km/h (0 Bft)
04.03.2025 01:00 22,7 °C -2,6 °C 45 % 92 % 1027,8 hPa 0,0 l/m² 0,0 km/h (0 Bft) N-NW 0,00 h 0 W/m² -3,8 °C -2,6 °C 0,0 km/h (0 Bft)
04.03.2025 02:00 22,8 °C -2,9 °C 45 % 92 % 1027,1 hPa 0,0 l/m² 0,0 km/h (0 Bft) N-NW 0,00 h 0 W/m² -4,0 °C -2,9 °C 0,0 km/h (0 Bft)
04.03.2025 03:00 22,7 °C -3,1 °C 45 % 92 % 1027,0 hPa 0,0 l/m² 0,0 km/h (0 Bft) N-NW 0,00 h 0 W/m² -4,2 °C -3,1 °C 0,0 km/h (0 Bft)
04.03.2025 04:00 22,7 °C -3,4 °C 45 % 92 % 1027,1 hPa 0,0 l/m² 0,0 km/h (0 Bft) N-NW 0,00 h 0 W/m² -4,5 °C -3,4 °C 0,0 km/h (0 Bft)
04.03.2025 05:00 22,8 °C -3,7 °C 45 % 92 % 1027,5 hPa 0,0 l/m² 0,0 km/h (0 Bft) N-NW 0,00 h 0 W/m² -4,8 °C -3,7 °C 0,2 km/h (0 Bft)
04.03.2025 06:00 22,8 °C -4,2 °C 45 % 92 % 1027,7 hPa 0,0 l/m² 0,0 km/h (0 Bft) W 0,00 h 5 W/m² -5,3 °C -4,2 °C 0,0 km/h (0 Bft)
04.03.2025 07:00 22,7 °C -3,6 °C 44 % 93 % 1027,7 hPa 0,0 l/m² 0,0 km/h (0 Bft) W 0,20 h 39 W/m² -4,6 °C -3,6 °C 0,0 km/h (0 Bft)
04.03.2025 08:00 22,7 °C -1,9 °C 41 % 93 % 1027,7 hPa 0,0 l/m² 0,0 km/h (0 Bft) W 1,00 h 120 W/m² -2,9 °C -1,9 °C 0,0 km/h (0 Bft)
04.03.2025 09:00 22,8 °C 1,0 °C 41 % 90 % 1027,3 hPa 0,0 l/m² 0,4 km/h (0 Bft) W 1,00 h 259 W/m² -0,4 °C 1,0 °C 0,8 km/h (0 Bft)
04.03.2025 10:00 23,0 °C 4,7 °C 42 % 80 % 1027,3 hPa 0,0 l/m² 3,9 km/h (1 Bft) S-SW 1,00 h 415 W/m² 1,6 °C 4,3 °C 5,8 km/h (2 Bft)
04.03.2025 11:00 23,1 °C 8,0 °C 42 % 70 % 1027,4 hPa 0,0 l/m² 5,8 km/h (2 Bft) S-SW 1,00 h 554 W/m² 2,8 °C 7,6 °C 8,3 km/h (2 Bft)
04.03.2025 12:00 23,1 °C 10,2 °C 42 % 62 % 1026,9 hPa 0,0 l/m² 9,0 km/h (2 Bft) S-SW 1,00 h 559 W/m² 3,4 °C 8,5 °C 12,0 km/h (2 Bft)
04.03.2025 13:00 23,1 °C 11,9 °C 42 % 56 % 1026,3 hPa 0,0 l/m² 8,8 km/h (2 Bft) S-SW 1,00 h 528 W/m² 3,3 °C 10,3 °C 11,6 km/h (2 Bft)
04.03.2025 14:00 23,0 °C 13,2 °C 43 % 49 % 1025,8 hPa 0,0 l/m² 6,3 km/h (2 Bft) SW 1,00 h 467 W/m² 2,6 °C 12,5 °C 8,9 km/h (2 Bft)
04.03.2025 15:00 23,0 °C 13,5 °C 43 % 44 % 1025,4 hPa 0,0 l/m² 2,9 km/h (1 Bft) SW 1,00 h 347 W/m² 1,4 °C 13,5 °C 5,0 km/h (1 Bft)
04.03.2025 16:00 22,8 °C 13,3 °C 39 % 46 % 1025,5 hPa 0,0 l/m² 2,3 km/h (1 Bft) SW 1,00 h 171 W/m² 1,9 °C 13,3 °C 3,7 km/h (1 Bft)
04.03.2025 17:00 22,6 °C 11,1 °C 39 % 56 % 1025,6 hPa 0,0 l/m² 0,0 km/h (0 Bft) SW 0,20 h 29 W/m² 2,4 °C 11,1 °C 0,0 km/h (0 Bft)
04.03.2025 18:00 22,4 °C 6,2 °C 41 % 72 % 1025,4 hPa 0,0 l/m² 0,3 km/h (0 Bft) SW 0,00 h 5 W/m² 1,5 °C 6,2 °C 0,9 km/h (0 Bft)
04.03.2025 19:00 22,4 °C 3,0 °C 43 % 80 % 1025,4 hPa 0,0 l/m² 0,0 km/h (0 Bft) SW 0,00 h 0 W/m² -0,1 °C 3,0 °C 0,0 km/h (0 Bft)
04.03.2025 20:00 22,4 °C 1,1 °C 43 % 84 % 1025,2 hPa 0,0 l/m² 0,0 km/h (0 Bft) SW 0,00 h 0 W/m² -1,2 °C 1,1 °C 0,0 km/h (0 Bft)
04.03.2025 21:00 22,4 °C -0,0 °C 43 % 87 % 1025,1 hPa 0,0 l/m² 0,1 km/h (0 Bft) SW 0,00 h 0 W/m² -1,9 °C -0,0 °C 0,2 km/h (0 Bft)
04.03.2025 22:00 22,4 °C -0,7 °C 44 % 89 % 1025,0 hPa 0,0 l/m² 0,0 km/h (0 Bft) SW 0,00 h 0 W/m² -2,3 °C -0,7 °C 0,1 km/h (0 Bft)
04.03.2025 23:00 22,4 °C -0,8 °C 44 % 89 % 1024,9 hPa 0,0 l/m² 0,0 km/h (0 Bft) SW 0,00 h 0 W/m² -2,5 °C -0,8 °C 0,1 km/h (0 Bft)
05.03.2025 00:00 22,5 °C -1,4 °C 44 % 90 % 1025,3 hPa 0,0 l/m² 1,1 km/h (1 Bft) S 0,00 h 0 W/m² -2,9 °C -1,4 °C 1,9 km/h (1 Bft)
05.03.2025 01:00 22,6 °C -2,3 °C 44 % 90 % 1025,8 hPa 0,0 l/m² 0,2 km/h (0 Bft) S-SW 0,00 h 0 W/m² -3,8 °C -2,3 °C 0,4 km/h (0 Bft)
05.03.2025 02:00 22,6 °C -2,7 °C 44 % 90 % 1025,7 hPa 0,0 l/m² 0,4 km/h (0 Bft) S-SW 0,00 h 0 W/m² -4,0 °C -2,7 °C 0,8 km/h (0 Bft)
05.03.2025 03:00 22,6 °C -2,6 °C 44 % 91 % 1025,3 hPa 0,0 l/m² 1,1 km/h (1 Bft) W 0,00 h 0 W/m² -3,8 °C -2,6 °C 2,2 km/h (1 Bft)
05.03.2025 04:00 22,6 °C -2,3 °C 44 % 91 % 1025,0 hPa 0,0 l/m² 1,9 km/h (1 Bft) W-NW 0,00 h 0 W/m² -3,5 °C -2,3 °C 3,3 km/h (1 Bft)
05.03.2025 05:00 22,6 °C -2,9 °C 43 % 91 % 1024,8 hPa 0,0 l/m² 2,3 km/h (1 Bft) N-NW 0,00 h 0 W/m² -4,2 °C -2,9 °C 3,8 km/h (1 Bft)
05.03.2025 06:00 22,7 °C -3,1 °C 43 % 91 % 1024,9 hPa 0,0 l/m² 2,0 km/h (1 Bft) NO 0,00 h 7 W/m² -4,4 °C -3,1 °C 3,4 km/h (1 Bft)
05.03.2025 07:00 22,6 °C -1,8 °C 43 % 90 % 1025,3 hPa 0,0 l/m² 0,7 km/h (0 Bft) O-NO 0,55 h 53 W/m² -3,2 °C -1,8 °C 1,5 km/h (1 Bft)
05.03.2025 08:00 22,7 °C 1,7 °C 43 % 85 % 1025,7 hPa 0,0 l/m² 3,3 km/h (1 Bft) O-NO 1,00 h 215 W/m² -0,6 °C 1,3 °C 4,7 km/h (1 Bft)
05.03.2025 09:00 23,0 °C 5,4 °C 43 % 75 % 1025,8 hPa 0,0 l/m² 7,6 km/h (2 Bft) S-SW 1,00 h 377 W/m² 1,2 °C 4,1 °C 10,6 km/h (2 Bft)
05.03.2025 10:00 23,0 °C 9,0 °C 43 % 65 % 1025,7 hPa 0,0 l/m² 4,6 km/h (1 Bft) S 1,00 h 497 W/m² 2,8 °C 8,9 °C 7,6 km/h (2 Bft)
05.03.2025 11:00 23,0 °C 11,8 °C 43 % 54 % 1025,7 hPa 0,0 l/m² 11,0 km/h (2 Bft) S-SW 1,00 h 570 W/m² 2,9 °C 9,2 °C 15,9 km/h (3 Bft)
05.03.2025 12:00 22,9 °C 13,9 °C 42 % 47 % 1025,0 hPa 0,0 l/m² 13,3 km/h (3 Bft) SW 1,00 h 594 W/m² 2,7 °C 10,6 °C 19,1 km/h (3 Bft)
05.03.2025 13:00 22,8 °C 15,1 °C 42 % 45 % 1024,5 hPa 0,0 l/m² 15,6 km/h (3 Bft) S-SW 1,00 h 565 W/m² 3,1 °C 11,1 °C 20,3 km/h (4 Bft)
05.03.2025 14:00 22,7 °C 15,7 °C 42 % 43 % 1024,1 hPa 0,0 l/m² 15,4 km/h (3 Bft) SW 1,00 h 490 W/m² 3,0 °C 11,9 °C 19,8 km/h (3 Bft)
05.03.2025 15:00 22,8 °C 15,8 °C 42 % 44 % 1023,8 hPa 0,0 l/m² 10,7 km/h (2 Bft) SW 1,00 h 361 W/m² 3,5 °C 13,8 °C 14,0 km/h (3 Bft)
05.03.2025 16:00 22,8 °C 15,1 °C 42 % 46 % 1023,4 hPa 0,0 l/m² 7,9 km/h (2 Bft) S 1,00 h 185 W/m² 3,4 °C 13,9 °C 10,5 km/h (2 Bft)
05.03.2025 17:00 22,7 °C 13,6 °C 42 % 48 % 1023,2 hPa 0,0 l/m² 0,9 km/h (0 Bft) S-SO 0,27 h 33 W/m² 2,8 °C 13,6 °C 2,0 km/h (1 Bft)
05.03.2025 18:00 22,6 °C 7,8 °C 44 % 68 % 1023,3 hPa 0,0 l/m² 0,0 km/h (0 Bft) S-SO 0,00 h 5 W/m² 2,1 °C 7,8 °C 0,1 km/h (0 Bft)
05.03.2025 19:00 22,6 °C 4,0 °C 46 % 78 % 1023,6 hPa 0,0 l/m² 0,0 km/h (0 Bft) S-SO 0,00 h 0 W/m² 0,5 °C 4,0 °C 0,0 km/h (0 Bft)
05.03.2025 20:00 22,6 °C 2,0 °C 46 % 85 % 1023,6 hPa 0,0 l/m² 0,0 km/h (0 Bft) S-SO 0,00 h 0 W/m² -0,3 °C 2,0 °C 0,0 km/h (0 Bft)
05.03.2025 21:00 22,7 °C 0,7 °C 45 % 86 % 1023,7 hPa 0,0 l/m² 0,0 km/h (0 Bft) S-SO 0,00 h 0 W/m² -1,3 °C 0,7 °C 0,0 km/h (0 Bft)
05.03.2025 22:00 22,6 °C 0,1 °C 45 % 87 % 1023,6 hPa 0,0 l/m² 0,1 km/h (0 Bft) S-SO 0,00 h 0 W/m² -1,7 °C 0,1 °C 0,2 km/h (0 Bft)
05.03.2025 23:00 22,5 °C -0,5 °C 45 % 89 % 1023,3 hPa 0,0 l/m² 0,0 km/h (0 Bft) S-SO 0,00 h 0 W/m² -2,1 °C -0,5 °C 0,0 km/h (0 Bft)
06.03.2025 00:00 22,5 °C -1,1 °C 45 % 90 % 1023,1 hPa 0,0 l/m² 0,0 km/h (0 Bft) S-SO 0,00 h 0 W/m² -2,6 °C -1,1 °C 0,0 km/h (0 Bft)
06.03.2025 01:00 22,6 °C -1,3 °C 45 % 90 % 1022,8 hPa 0,0 l/m² 1,4 km/h (1 Bft) O-SO 0,00 h 0 W/m² -2,8 °C -1,3 °C 2,7 km/h (1 Bft)
06.03.2025 02:00 22,6 °C -1,4 °C 45 % 90 % 1022,6 hPa 0,0 l/m² 1,4 km/h (1 Bft) O 0,00 h 0 W/m² -2,9 °C -1,4 °C 2,7 km/h (1 Bft)
06.03.2025 03:00 22,6 °C -2,0 °C 45 % 90 % 1022,4 hPa 0,0 l/m² 0,4 km/h (0 Bft) O 0,00 h 0 W/m² -3,4 °C -2,0 °C 0,7 km/h (0 Bft)
06.03.2025 04:00 22,7 °C -2,5 °C 45 % 91 % 1022,1 hPa 0,0 l/m² 0,1 km/h (0 Bft) O 0,00 h 0 W/m² -3,8 °C -2,5 °C 0,2 km/h (0 Bft)
06.03.2025 05:00 22,6 °C -2,6 °C 45 % 91 % 1021,9 hPa 0,0 l/m² 0,0 km/h (0 Bft) O 0,00 h 0 W/m² -3,9 °C -2,6 °C 0,2 km/h (0 Bft)
06.03.2025 06:00 22,7 °C -2,7 °C 44 % 91 % 1021,6 hPa 0,0 l/m² 1,5 km/h (1 Bft) O 0,00 h 7 W/m² -3,9 °C -2,7 °C 2,6 km/h (1 Bft)
06.03.2025 07:00 22,5 °C -1,4 °C 40 % 91 % 1021,7 hPa 0,0 l/m² 1,6 km/h (1 Bft) O 0,50 h 63 W/m² -2,7 °C -1,4 °C 2,9 km/h (1 Bft)
06.03.2025 08:00 22,6 °C 2,0 °C 41 % 87 % 1021,9 hPa 0,0 l/m² 2,7 km/h (1 Bft) O 1,00 h 220 W/m² 0,1 °C 2,0 °C 4,0 km/h (1 Bft)
06.03.2025 09:00 22,9 °C 6,9 °C 41 % 77 % 1021,7 hPa 0,2 l/m² 3,2 km/h (1 Bft) O 1,00 h 365 W/m² 3,2 °C 6,7 °C 4,8 km/h (1 Bft)
06.03.2025 10:00 23,1 °C 10,4 °C 42 % 65 % 1021,7 hPa 0,0 l/m² 10,5 km/h (2 Bft) S-SW 1,00 h 483 W/m² 4,0 °C 7,8 °C 13,9 km/h (3 Bft)
06.03.2025 11:00 23,3 °C 13,1 °C 42 % 57 % 1021,3 hPa 0,0 l/m² 11,6 km/h (2 Bft) S-SW 1,00 h 559 W/m² 4,8 °C 10,4 °C 14,6 km/h (3 Bft)
06.03.2025 12:00 23,7 °C 15,0 °C 42 % 52 % 1021,0 hPa 0,0 l/m² 11,5 km/h (2 Bft) S-SW 1,00 h 576 W/m² 5,2 °C 12,5 °C 14,4 km/h (3 Bft)
06.03.2025 13:00 23,7 °C 16,1 °C 42 % 48 % 1020,5 hPa 0,0 l/m² 13,8 km/h (3 Bft) S-SW 1,00 h 540 W/m² 5,2 °C 13,0 °C 17,4 km/h (3 Bft)
06.03.2025 14:00 23,4 °C 16,4 °C 42 % 46 % 1020,0 hPa 0,0 l/m² 14,4 km/h (3 Bft) SW 1,00 h 464 W/m² 4,8 °C 13,2 °C 18,9 km/h (3 Bft)
06.03.2025 15:00 23,3 °C 16,3 °C 42 % 45 % 1019,7 hPa 0,0 l/m² 13,8 km/h (3 Bft) SW 1,00 h 345 W/m² 4,3 °C 13,2 °C 17,9 km/h (3 Bft)
06.03.2025 16:00 23,2 °C 15,3 °C 42 % 50 % 1019,4 hPa 0,0 l/m² 11,9 km/h (2 Bft) SW 1,00 h 175 W/m² 5,0 °C 12,8 °C 15,1 km/h (3 Bft)
06.03.2025 17:00 22,8 °C 13,4 °C 38 % 56 % 1019,2 hPa 0,0 l/m² 4,4 km/h (1 Bft) S-SW 0,27 h 34 W/m² 4,7 °C 13,3 °C 5,5 km/h (2 Bft)
06.03.2025 18:00 22,7 °C 9,7 °C 41 % 66 % 1019,4 hPa 0,0 l/m² 0,0 km/h (0 Bft) S-SW 0,00 h 5 W/m² 3,6 °C 9,7 °C 0,2 km/h (0 Bft)
06.03.2025 19:00 22,6 °C 6,1 °C 42 % 75 % 1019,9 hPa 0,0 l/m² 0,0 km/h (0 Bft) S-SW 0,00 h 0 W/m² 2,0 °C 6,1 °C 0,1 km/h (0 Bft)
06.03.2025 20:00 22,6 °C 3,5 °C 43 % 84 % 1020,0 hPa 0,0 l/m² 0,0 km/h (0 Bft) S-SW 0,00 h 0 W/m² 1,1 °C 3,5 °C 0,1 km/h (0 Bft)
06.03.2025 21:00 22,6 °C 2,2 °C 43 % 88 % 1020,3 hPa 0,0 l/m² 0,0 km/h (0 Bft) S-SW 0,00 h 0 W/m² 0,4 °C 2,2 °C 0,1 km/h (0 Bft)
06.03.2025 22:00 22,6 °C 1,7 °C 45 % 87 % 1020,5 hPa 0,0 l/m² 0,1 km/h (0 Bft) S-SW 0,00 h 0 W/m² -0,2 °C 1,7 °C 0,3 km/h (0 Bft)
06.03.2025 23:00 22,6 °C 0,7 °C 45 % 88 % 1020,6 hPa 0,0 l/m² 0,0 km/h (0 Bft) S 0,00 h 0 W/m² -1,0 °C 0,7 °C 0,1 km/h (0 Bft)
07.03.2025 00:00 22,5 °C -0,4 °C 45 % 90 % 1020,5 hPa 0,0 l/m² 0,0 km/h (0 Bft) S 0,00 h 0 W/m² -1,9 °C -0,4 °C 0,0 km/h (0 Bft)
07.03.2025 01:00 22,4 °C -0,6 °C 44 % 91 % 1020,4 hPa 0,0 l/m² 0,3 km/h (0 Bft) S-SO 0,00 h 0 W/m² -2,0 °C -0,6 °C 0,8 km/h (0 Bft)
07.03.2025 02:00 22,5 °C -1,2 °C 45 % 91 % 1020,3 hPa 0,0 l/m² 0,0 km/h (0 Bft) S-SO 0,00 h 0 W/m² -2,4 °C -1,2 °C 0,2 km/h (0 Bft)
07.03.2025 03:00 22,6 °C -1,4 °C 45 % 92 % 1020,2 hPa 0,0 l/m² 0,2 km/h (0 Bft) S-SO 0,00 h 0 W/m² -2,5 °C -1,4 °C 0,3 km/h (0 Bft)
07.03.2025 04:00 22,6 °C -1,6 °C 45 % 92 % 1020,4 hPa 0,0 l/m² 1,5 km/h (1 Bft) O-NO 0,00 h 0 W/m² -2,7 °C -1,6 °C 2,7 km/h (1 Bft)
07.03.2025 05:00 22,6 °C -2,0 °C 45 % 92 % 1020,4 hPa 0,0 l/m² 0,0 km/h (0 Bft) O-NO 0,00 h 0 W/m² -3,1 °C -2,0 °C 0,0 km/h (0 Bft)
07.03.2025 06:00 22,6 °C -1,9 °C 44 % 93 % 1020,4 hPa 0,0 l/m² 0,5 km/h (0 Bft) O-NO 0,00 h 13 W/m² -2,9 °C -1,9 °C 1,1 km/h (0 Bft)
07.03.2025 07:00 22,4 °C -0,4 °C 41 % 93 % 1020,7 hPa 0,0 l/m² 0,8 km/h (0 Bft) O-NO 0,73 h 71 W/m² -1,4 °C -0,4 °C 1,3 km/h (1 Bft)
07.03.2025 08:00 22,6 °C 2,6 °C 42 % 90 % 1020,9 hPa 0,0 l/m² 1,3 km/h (1 Bft) O-NO 1,00 h 191 W/m² 1,1 °C 2,5 °C 1,9 km/h (1 Bft)
07.03.2025 09:00 22,9 °C 6,3 °C 42 % 81 % 1020,9 hPa 0,0 l/m² 0,4 km/h (0 Bft) O 1,00 h 364 W/m² 3,4 °C 6,3 °C 0,9 km/h (0 Bft)
07.03.2025 10:00 23,0 °C 10,3 °C 42 % 72 % 1020,7 hPa 0,0 l/m² 0,9 km/h (0 Bft) O 1,00 h 487 W/m² 5,5 °C 10,3 °C 2,1 km/h (1 Bft)
07.03.2025 11:00 23,3 °C 14,0 °C 42 % 60 % 1020,4 hPa 0,0 l/m² 2,1 km/h (1 Bft) S-SW 1,00 h 566 W/m² 6,3 °C 14,0 °C 3,9 km/h (1 Bft)
07.03.2025 12:00 23,7 °C 16,3 °C 42 % 52 % 1020,0 hPa 0,0 l/m² 4,7 km/h (1 Bft) O 1,00 h 590 W/m² 6,3 °C 16,3 °C 6,8 km/h (2 Bft)
07.03.2025 13:00 23,7 °C 17,4 °C 42 % 43 % 1019,2 hPa 0,0 l/m² 3,9 km/h (1 Bft) O-SO 1,00 h 561 W/m² 4,6 °C 17,3 °C 6,2 km/h (2 Bft)
07.03.2025 14:00 23,4 °C 18,1 °C 42 % 39 % 1018,6 hPa 0,0 l/m² 4,4 km/h (1 Bft) O 1,00 h 473 W/m² 4,0 °C 18,0 °C 6,8 km/h (2 Bft)
07.03.2025 15:00 23,2 °C 18,2 °C 39 % 39 % 1018,2 hPa 0,0 l/m² 5,9 km/h (2 Bft) O 1,00 h 343 W/m² 3,9 °C 17,8 °C 8,6 km/h (2 Bft)
07.03.2025 16:00 22,8 °C 17,5 °C 35 % 43 % 1017,8 hPa 0,0 l/m² 3,7 km/h (1 Bft) O-NO 1,00 h 179 W/m² 4,7 °C 17,4 °C 5,1 km/h (1 Bft)
07.03.2025 17:00 22,7 °C 15,7 °C 37 % 47 % 1017,7 hPa 0,0 l/m² 2,9 km/h (1 Bft) O-NO 0,30 h 38 W/m² 4,4 °C 15,7 °C 5,1 km/h (1 Bft)
07.03.2025 18:00 22,6 °C 9,6 °C 39 % 67 % 1017,8 hPa 0,0 l/m² 0,2 km/h (0 Bft) O-NO 0,00 h 5 W/m² 3,7 °C 9,6 °C 0,6 km/h (0 Bft)
07.03.2025 19:00 22,6 °C 5,9 °C 41 % 79 % 1017,9 hPa 0,0 l/m² 0,0 km/h (0 Bft) O-NO 0,00 h 0 W/m² 2,6 °C 5,9 °C 0,0 km/h (0 Bft)
07.03.2025 20:00 22,5 °C 3,9 °C 43 % 86 % 1018,0 hPa 0,0 l/m² 0,0 km/h (0 Bft) O-NO 0,00 h 0 W/m² 1,8 °C 3,9 °C 0,0 km/h (0 Bft)
07.03.2025 21:00 22,7 °C 2,3 °C 45 % 88 % 1018,1 hPa 0,0 l/m² 0,0 km/h (0 Bft) O-NO 0,00 h 0 W/m² 0,5 °C 2,3 °C 0,0 km/h (0 Bft)
07.03.2025 22:00 22,7 °C 1,6 °C 44 % 89 % 1018,3 hPa 0,0 l/m² 0,0 km/h (0 Bft) O-NO 0,00 h 0 W/m² -0,1 °C 1,6 °C 0,0 km/h (0 Bft)
07.03.2025 23:00 22,7 °C 0,7 °C 45 % 89 % 1018,3 hPa 0,0 l/m² 0,0 km/h (0 Bft) O-NO 0,00 h 0 W/m² -0,9 °C 0,7 °C 0,0 km/h (0 Bft)
08.03.2025 00:00 22,7 °C 0,1 °C 45 % 90 % 1018,1 hPa 0,0 l/m² 0,0 km/h (0 Bft) O-NO 0,00 h 0 W/m² -1,3 °C 0,1 °C 0,0 km/h (0 Bft)
08.03.2025 01:00 22,6 °C -0,4 °C 46 % 90 % 1017,9 hPa 0,0 l/m² 0,0 km/h (0 Bft) O-NO 0,00 h 0 W/m² -1,8 °C -0,4 °C 0,0 km/h (0 Bft)
08.03.2025 02:00 22,7 °C -0,9 °C 46 % 91 % 1017,6 hPa 0,0 l/m² 0,0 km/h (0 Bft) O-NO 0,00 h 0 W/m² -2,2 °C -0,9 °C 0,0 km/h (0 Bft)
08.03.2025 03:00 22,7 °C -1,2 °C 45 % 92 % 1017,4 hPa 0,0 l/m² 0,0 km/h (0 Bft) O-NO 0,00 h 0 W/m² -2,4 °C -1,2 °C 0,0 km/h (0 Bft)
08.03.2025 04:00 22,7 °C -1,3 °C 45 % 92 % 1017,3 hPa 0,0 l/m² 0,0 km/h (0 Bft) O-NO 0,00 h 0 W/m² -2,4 °C -1,3 °C 0,0 km/h (0 Bft)
08.03.2025 05:00 22,7 °C -1,8 °C 45 % 92 % 1017,3 hPa 0,0 l/m² 0,0 km/h (0 Bft) O-NO 0,00 h 0 W/m² -2,9 °C -1,8 °C 0,0 km/h (0 Bft)
08.03.2025 06:00 22,7 °C -2,1 °C 45 % 92 % 1017,3 hPa 0,0 l/m² 0,0 km/h (0 Bft) O-NO 0,00 h 9 W/m² -3,2 °C -2,1 °C 0,0 km/h (0 Bft)
08.03.2025 07:00 22,7 °C -1,5 °C 45 % 92 % 1017,4 hPa 0,0 l/m² 0,0 km/h (0 Bft) O-NO 0,50 h 62 W/m² -2,7 °C -1,5 °C 0,0 km/h (0 Bft)
08.03.2025 08:00 22,7 °C 0,4 °C 44 % 92 % 1017,5 hPa 0,0 l/m² 0,0 km/h (0 Bft) O-NO 1,00 h 194 W/m² -0,8 °C 0,4 °C 0,1 km/h (0 Bft)
08.03.2025 09:00 23,0 °C 4,9 °C 45 % 88 % 1017,5 hPa 0,0 l/m² 0,0 km/h (0 Bft) O-NO 1,00 h 347 W/m² 3,0 °C 4,9 °C 0,0 km/h (0 Bft)
08.03.2025 10:00 22,9 °C 10,0 °C 43 % 73 % 1017,2 hPa 0,0 l/m² 5,6 km/h (2 Bft) O 1,00 h 464 W/m² 5,4 °C 9,2 °C 7,6 km/h (2 Bft)
08.03.2025 11:00 22,6 °C 11,9 °C 39 % 67 % 1016,9 hPa 0,0 l/m² 6,4 km/h (2 Bft) O 1,00 h 535 W/m² 6,1 °C 11,2 °C 9,3 km/h (2 Bft)
08.03.2025 12:00 22,3 °C 13,9 °C 40 % 63 % 1016,3 hPa 0,0 l/m² 6,3 km/h (2 Bft) O 1,00 h 555 W/m² 7,1 °C 13,5 °C 9,1 km/h (2 Bft)
08.03.2025 13:00 22,6 °C 15,7 °C 42 % 57 % 1015,3 hPa 0,0 l/m² 7,3 km/h (2 Bft) O 1,00 h 525 W/m² 7,1 °C 15,0 °C 10,4 km/h (2 Bft)
08.03.2025 14:00 22,6 °C 17,3 °C 42 % 48 % 1014,4 hPa 0,0 l/m² 8,2 km/h (2 Bft) O-NO 1,00 h 450 W/m² 6,2 °C 16,2 °C 12,9 km/h (3 Bft)
08.03.2025 15:00 22,6 °C 17,8 °C 42 % 44 % 1013,8 hPa 0,0 l/m² 7,5 km/h (2 Bft) O-NO 1,00 h 328 W/m² 5,3 °C 17,1 °C 12,4 km/h (2 Bft)
08.03.2025 16:00 22,7 °C 17,2 °C 42 % 46 % 1013,4 hPa 0,0 l/m² 5,6 km/h (2 Bft) NO 1,00 h 166 W/m² 5,5 °C 17,0 °C 9,3 km/h (2 Bft)
08.03.2025 17:00 22,5 °C 15,2 °C 43 % 49 % 1013,4 hPa 0,0 l/m² 4,7 km/h (1 Bft) N-NO 0,33 h 39 W/m² 4,6 °C 15,2 °C 8,0 km/h (2 Bft)
08.03.2025 18:00 22,4 °C 10,5 °C 44 % 64 % 1013,4 hPa 0,0 l/m² 1,0 km/h (0 Bft) NO 0,00 h 5 W/m² 3,9 °C 10,5 °C 1,8 km/h (1 Bft)
08.03.2025 19:00 22,3 °C 6,7 °C 45 % 76 % 1013,3 hPa 0,0 l/m² 0,0 km/h (0 Bft) W-SW 0,00 h 0 W/m² 2,7 °C 6,7 °C 0,1 km/h (0 Bft)
08.03.2025 20:00 22,3 °C 5,0 °C 45 % 81 % 1013,1 hPa 0,0 l/m² 0,0 km/h (0 Bft) W-SW 0,00 h 0 W/m² 2,0 °C 5,0 °C 0,2 km/h (0 Bft)
08.03.2025 21:00 22,3 °C 3,9 °C 45 % 84 % 1012,8 hPa 0,0 l/m² 0,0 km/h (0 Bft) W-SW 0,00 h 0 W/m² 1,4 °C 3,9 °C 0,0 km/h (0 Bft)
08.03.2025 22:00 22,3 °C 2,8 °C 45 % 87 % 1012,5 hPa 0,0 l/m² 0,1 km/h (0 Bft) W-SW 0,00 h 0 W/m² 0,9 °C 2,8 °C 0,3 km/h (0 Bft)
08.03.2025 23:00 22,3 °C 2,2 °C 44 % 87 % 1012,3 hPa 0,0 l/m² 0,1 km/h (0 Bft) W-SW 0,00 h 0 W/m² 0,3 °C 2,2 °C 0,2 km/h (0 Bft)
09.03.2025 00:00 22,3 °C 1,4 °C 44 % 89 % 1011,9 hPa 0,0 l/m² 0,0 km/h (0 Bft) W-SW 0,00 h 0 W/m² -0,3 °C 1,4 °C 0,0 km/h (0 Bft)
09.03.2025 01:00 22,3 °C 1,1 °C 44 % 90 % 1011,4 hPa 0,0 l/m² 0,0 km/h (0 Bft) W-SW 0,00 h 0 W/m² -0,4 °C 1,1 °C 0,1 km/h (0 Bft)
09.03.2025 02:00 22,3 °C 0,8 °C 44 % 91 % 1010,8 hPa 0,0 l/m² 0,5 km/h (0 Bft) W-SW 0,00 h 0 W/m² -0,6 °C 0,8 °C 0,9 km/h (0 Bft)
09.03.2025 03:00 22,2 °C 0,5 °C 44 % 91 % 1010,3 hPa 0,0 l/m² 1,0 km/h (0 Bft) W-SW 0,00 h 0 W/m² -0,9 °C 0,5 °C 1,7 km/h (1 Bft)
09.03.2025 04:00 22,2 °C -0,4 °C 44 % 90 % 1010,0 hPa 0,0 l/m² 0,9 km/h (0 Bft) W-SW 0,00 h 0 W/m² -1,7 °C -0,4 °C 1,6 km/h (1 Bft)
09.03.2025 05:00 22,3 °C -0,6 °C 44 % 91 % 1009,7 hPa 0,0 l/m² 1,2 km/h (1 Bft) W-SW 0,00 h 0 W/m² -1,8 °C -0,6 °C 2,5 km/h (1 Bft)
09.03.2025 06:00 22,3 °C -0,6 °C 44 % 92 % 1009,5 hPa 0,0 l/m² 0,8 km/h (0 Bft) SW 0,00 h 10 W/m² -1,7 °C -0,6 °C 1,8 km/h (1 Bft)
09.03.2025 07:00 22,3 °C -0,4 °C 44 % 92 % 1009,4 hPa 0,0 l/m² 0,1 km/h (0 Bft) SW 0,58 h 64 W/m² -1,6 °C -0,4 °C 0,2 km/h (0 Bft)
09.03.2025 08:00 22,5 °C 2,1 °C 45 % 91 % 1009,2 hPa 0,0 l/m² 1,6 km/h (1 Bft) SW 1,00 h 199 W/m² 0,7 °C 2,1 °C 3,6 km/h (1 Bft)
09.03.2025 09:00 22,8 °C 6,6 °C 46 % 82 % 1008,7 hPa 0,0 l/m² 4,6 km/h (1 Bft) W 1,00 h 353 W/m² 3,7 °C 6,6 °C 7,3 km/h (2 Bft)
09.03.2025 10:00 22,9 °C 9,2 °C 46 % 76 % 1008,2 hPa 0,0 l/m² 3,7 km/h (1 Bft) W-SW 1,02 h 473 W/m² 5,2 °C 9,2 °C 6,0 km/h (2 Bft)
09.03.2025 11:00 22,9 °C 11,7 °C 45 % 69 % 1007,5 hPa 0,0 l/m² 3,1 km/h (1 Bft) W-SW 1,00 h 549 W/m² 6,2 °C 11,7 °C 5,8 km/h (2 Bft)
09.03.2025 12:00 22,8 °C 13,8 °C 45 % 63 % 1006,9 hPa 0,0 l/m² 2,5 km/h (1 Bft) W 1,00 h 571 W/m² 6,9 °C 13,8 °C 5,2 km/h (1 Bft)
09.03.2025 13:00 22,8 °C 15,4 °C 45 % 60 % 1006,0 hPa 0,0 l/m² 3,8 km/h (1 Bft) W-NW 1,00 h 535 W/m² 7,6 °C 15,4 °C 6,5 km/h (2 Bft)
09.03.2025 14:00 22,7 °C 16,2 °C 45 % 57 % 1005,5 hPa 0,0 l/m² 4,8 km/h (1 Bft) W-SW 1,00 h 457 W/m² 7,7 °C 16,1 °C 7,6 km/h (2 Bft)
09.03.2025 15:00 22,8 °C 16,9 °C 46 % 52 % 1004,9 hPa 0,0 l/m² 3,3 km/h (1 Bft) N-NW 1,00 h 333 W/m² 7,0 °C 16,8 °C 5,8 km/h (2 Bft)
09.03.2025 16:00 22,7 °C 16,1 °C 44 % 52 % 1004,6 hPa 0,0 l/m² 3,5 km/h (1 Bft) N 1,00 h 174 W/m² 6,4 °C 16,1 °C 5,9 km/h (2 Bft)
09.03.2025 17:00 22,4 °C 13,9 °C 42 % 60 % 1004,4 hPa 0,0 l/m² 0,6 km/h (0 Bft) O-NO 0,33 h 39 W/m² 6,2 °C 13,9 °C 1,2 km/h (1 Bft)
09.03.2025 18:00 22,3 °C 8,2 °C 43 % 77 % 1004,3 hPa 0,0 l/m² 0,0 km/h (0 Bft) O-NO 0,00 h 5 W/m² 4,4 °C 8,2 °C 0,0 km/h (0 Bft)
09.03.2025 19:00 22,4 °C 5,2 °C 46 % 85 % 1004,3 hPa 0,0 l/m² 0,0 km/h (0 Bft) O-NO 0,00 h 0 W/m² 2,8 °C 5,2 °C 0,0 km/h (0 Bft)
09.03.2025 20:00 22,4 °C 3,4 °C 47 % 88 % 1004,0 hPa 0,0 l/m² 0,0 km/h (0 Bft) O-NO 0,00 h 0 W/m² 1,7 °C 3,4 °C 0,0 km/h (0 Bft)
09.03.2025 21:00 22,6 °C 2,6 °C 47 % 89 % 1003,9 hPa 0,0 l/m² 0,0 km/h (0 Bft) W-SW 0,00 h 0 W/m² 1,0 °C 2,6 °C 0,0 km/h (0 Bft)
09.03.2025 22:00 22,4 °C 2,3 °C 47 % 90 % 1003,7 hPa 0,0 l/m² 0,0 km/h (0 Bft) W-SW 0,00 h 0 W/m² 0,8 °C 2,3 °C 0,0 km/h (0 Bft)
09.03.2025 23:00 22,4 °C 0,9 °C 47 % 91 % 1003,4 hPa 0,0 l/m² 0,0 km/h (0 Bft) W-SW 0,00 h 0 W/m² -0,4 °C 0,9 °C 0,0 km/h (0 Bft)
Min-Datum _ 09.03.25 04.03.25 07.03.25 07.03.25 09.03.25 - 09.03.25 - - - 04.03.25 04.03.25 09.03.25
_ Min-Zeit 05:01 07:02 16:20 15:09 23:59 - 23:00 - - - 07:02 07:02 23:00
Minimum _ 22,2 °C -4,3 °C 34 % 35 % 1003,0 hPa - 0,0 km/h (0 Bft) - - - -5,4 °C -4,3 °C 0,0 km/h (0 Bft)
Max-Datum _ 03.03.25 07.03.25 09.03.25 08.03.25 03.03.25 06.03.25 05.03.25 - 09.03.25 07.03.25 09.03.25 07.03.25 05.03.25
_ Max-Zeit 14:01 15:12 21:46 08:17 00:00 09:13 13:54 - 13:23 12:30 14:25 15:10 13:47
Maximum _ 24,7 °C 18,9 °C 48 % 93 % 1031,6 hPa 0,2 l/m² 21,2 km/h
S-SW (4 Bft)
- 0,05 h 598 W/m² 8,6 °C 18,8 °C 27,4 km/h
S-SW (5 Bft)
Durchschnitt _ 22,7 °C 4,8 °C 44 % 77 % 1020,6 hPa #0,4 l/m² 2,5 km/h (1 Bft) O-NO #68:19 h 157 W/m² 0,5 °C 4,5 °C 3,6 km/h (1 Bft)
© 2009 Mathias Hoßbach